sensor_id;sensor_type;location;lat;lon;timestamp;pressure;altitude;pressure_sealevel;temperature
71960;BMP280;59832;51.146;14.024;2024-01-30T00:02:19;99680.00;;;2.10
71960;BMP280;59832;51.146;14.024;2024-01-30T00:04:45;99673.44;;;2.04
71960;BMP280;59832;51.146;14.024;2024-01-30T00:07:11;99673.19;;;2.05
71960;BMP280;59832;51.146;14.024;2024-01-30T00:09:38;99665.59;;;2.00
71960;BMP280;59832;51.146;14.024;2024-01-30T00:12:06;99668.94;;;2.11
71960;BMP280;59832;51.146;14.024;2024-01-30T00:14:32;99676.69;;;2.04
71960;BMP280;59832;51.146;14.024;2024-01-30T00:16:59;99674.94;;;2.05
71960;BMP280;59832;51.146;14.024;2024-01-30T00:19:25;99682.72;;;2.03
71960;BMP280;59832;51.146;14.024;2024-01-30T00:21:52;99676.94;;;2.03
71960;BMP280;59832;51.146;14.024;2024-01-30T00:24:18;99676.63;;;1.94
71960;BMP280;59832;51.146;14.024;2024-01-30T00:26:45;99680.63;;;1.90
71960;BMP280;59832;51.146;14.024;2024-01-30T00:29:11;99672.91;;;2.02
71960;BMP280;59832;51.146;14.024;2024-01-30T00:31:38;99669.09;;;1.94
71960;BMP280;59832;51.146;14.024;2024-01-30T00:34:07;99663.84;;;2.01
71960;BMP280;59832;51.146;14.024;2024-01-30T00:36:34;99662.03;;;1.91
71960;BMP280;59832;51.146;14.024;2024-01-30T00:39:00;99664.59;;;1.96
71960;BMP280;59832;51.146;14.024;2024-01-30T00:41:27;99661.53;;;1.89
71960;BMP280;59832;51.146;14.024;2024-01-30T00:43:53;99668.81;;;1.90
71960;BMP280;59832;51.146;14.024;2024-01-30T00:46:19;99656.78;;;1.92
71960;BMP280;59832;51.146;14.024;2024-01-30T00:48:46;99665.81;;;1.88
71960;BMP280;59832;51.146;14.024;2024-01-30T00:51:12;99672.59;;;1.93
71960;BMP280;59832;51.146;14.024;2024-01-30T00:53:39;99665.78;;;1.83
71960;BMP280;59832;51.146;14.024;2024-01-30T00:56:05;99666.28;;;1.80
71960;BMP280;59832;51.146;14.024;2024-01-30T00:58:32;99666.91;;;1.66
71960;BMP280;59832;51.146;14.024;2024-01-30T01:00:58;99667.81;;;1.81
71960;BMP280;59832;51.146;14.024;2024-01-30T01:03:25;99669.78;;;1.79
71960;BMP280;59832;51.146;14.024;2024-01-30T01:05:51;99674.44;;;1.66
71960;BMP280;59832;51.146;14.024;2024-01-30T01:08:18;99665.97;;;1.72
71960;BMP280;59832;51.146;14.024;2024-01-30T01:10:44;99672.53;;;1.78
71960;BMP280;59832;51.146;14.024;2024-01-30T01:13:11;99669.28;;;1.82
71960;BMP280;59832;51.146;14.024;2024-01-30T01:15:37;99671.91;;;1.98
71960;BMP280;59832;51.146;14.024;2024-01-30T01:18:04;99663.50;;;1.82
71960;BMP280;59832;51.146;14.024;2024-01-30T01:20:31;99664.25;;;1.77
71960;BMP280;59832;51.146;14.024;2024-01-30T01:22:57;99661.25;;;1.80
71960;BMP280;59832;51.146;14.024;2024-01-30T01:25:24;99663.69;;;1.70
71960;BMP280;59832;51.146;14.024;2024-01-30T01:27:50;99660.66;;;1.68
71960;BMP280;59832;51.146;14.024;2024-01-30T01:30:20;99656.59;;;1.62
71960;BMP280;59832;51.146;14.024;2024-01-30T01:32:49;99673.53;;;1.82
71960;BMP280;59832;51.146;14.024;2024-01-30T01:35:24;99665.44;;;1.70
71960;BMP280;59832;51.146;14.024;2024-01-30T01:37:54;99666.75;;;1.77
71960;BMP280;59832;51.146;14.024;2024-01-30T01:40:26;99658.16;;;1.73
71960;BMP280;59832;51.146;14.024;2024-01-30T01:42:55;99660.75;;;1.78
71960;BMP280;59832;51.146;14.024;2024-01-30T01:45:22;99654.41;;;1.71
71960;BMP280;59832;51.146;14.024;2024-01-30T01:47:52;99659.88;;;1.63
71960;BMP280;59832;51.146;14.024;2024-01-30T01:50:20;99653.28;;;1.57
71960;BMP280;59832;51.146;14.024;2024-01-30T01:52:47;99649.78;;;1.58
71960;BMP280;59832;51.146;14.024;2024-01-30T01:55:15;99650.28;;;1.54
71960;BMP280;59832;51.146;14.024;2024-01-30T01:57:42;99646.50;;;1.57
71960;BMP280;59832;51.146;14.024;2024-01-30T02:00:10;99653.72;;;1.48
71960;BMP280;59832;51.146;14.024;2024-01-30T02:02:38;99656.75;;;1.50
71960;BMP280;59832;51.146;14.024;2024-01-30T02:05:05;99649.44;;;1.44
71960;BMP280;59832;51.146;14.024;2024-01-30T02:07:32;99650.13;;;1.39
71960;BMP280;59832;51.146;14.024;2024-01-30T02:09:59;99645.84;;;1.35
71960;BMP280;59832;51.146;14.024;2024-01-30T02:12:25;99644.56;;;1.32
71960;BMP280;59832;51.146;14.024;2024-01-30T02:14:52;99651.34;;;1.32
71960;BMP280;59832;51.146;14.024;2024-01-30T02:17:19;99649.63;;;1.37
71960;BMP280;59832;51.146;14.024;2024-01-30T02:19:46;99646.19;;;1.48
71960;BMP280;59832;51.146;14.024;2024-01-30T02:22:13;99642.38;;;1.41
71960;BMP280;59832;51.146;14.024;2024-01-30T02:24:40;99642.06;;;1.32
71960;BMP280;59832;51.146;14.024;2024-01-30T02:27:06;99647.69;;;1.44
71960;BMP280;59832;51.146;14.024;2024-01-30T02:29:33;99640.91;;;1.45
71960;BMP280;59832;51.146;14.024;2024-01-30T02:31:59;99634.56;;;1.37
71960;BMP280;59832;51.146;14.024;2024-01-30T02:34:26;99633.09;;;1.41
71960;BMP280;59832;51.146;14.024;2024-01-30T02:36:52;99634.53;;;1.32
71960;BMP280;59832;51.146;14.024;2024-01-30T02:39:19;99633.84;;;1.42
71960;BMP280;59832;51.146;14.024;2024-01-30T02:41:46;99638.63;;;1.43
71960;BMP280;59832;51.146;14.024;2024-01-30T02:44:12;99626.31;;;1.42
71960;BMP280;59832;51.146;14.024;2024-01-30T02:46:38;99629.81;;;1.41
71960;BMP280;59832;51.146;14.024;2024-01-30T02:49:05;99622.00;;;1.32
71960;BMP280;59832;51.146;14.024;2024-01-30T02:51:31;99622.25;;;1.36
71960;BMP280;59832;51.146;14.024;2024-01-30T02:53:58;99619.75;;;1.36
71960;BMP280;59832;51.146;14.024;2024-01-30T02:56:24;99620.78;;;1.40
71960;BMP280;59832;51.146;14.024;2024-01-30T02:58:50;99620.75;;;1.35
71960;BMP280;59832;51.146;14.024;2024-01-30T03:01:17;99618.25;;;1.35
71960;BMP280;59832;51.146;14.024;2024-01-30T03:03:43;99616.72;;;1.34
71960;BMP280;59832;51.146;14.024;2024-01-30T03:06:10;99621.75;;;1.34
71960;BMP280;59832;51.146;14.024;2024-01-30T03:08:36;99612.69;;;1.28
71960;BMP280;59832;51.146;14.024;2024-01-30T03:11:03;99613.22;;;1.30
71960;BMP280;59832;51.146;14.024;2024-01-30T03:13:30;99614.69;;;1.26
71960;BMP280;59832;51.146;14.024;2024-01-30T03:15:57;99614.72;;;1.31
71960;BMP280;59832;51.146;14.024;2024-01-30T03:18:24;99613.22;;;1.30
71960;BMP280;59832;51.146;14.024;2024-01-30T03:20:50;99607.44;;;1.29
71960;BMP280;59832;51.146;14.024;2024-01-30T03:23:16;99611.41;;;1.25
71960;BMP280;59832;51.146;14.024;2024-01-30T03:25:43;99613.22;;;1.30
71960;BMP280;59832;51.146;14.024;2024-01-30T03:28:09;99621.47;;;1.30
71960;BMP280;59832;51.146;14.024;2024-01-30T03:30:36;99615.44;;;1.26
71960;BMP280;59832;51.146;14.024;2024-01-30T03:33:02;99608.94;;;1.30
71960;BMP280;59832;51.146;14.024;2024-01-30T03:35:29;99616.94;;;1.27
71960;BMP280;59832;51.146;14.024;2024-01-30T03:37:55;99621.50;;;1.35
71960;BMP280;59832;51.146;14.024;2024-01-30T03:40:21;99606.41;;;1.30
71960;BMP280;59832;51.146;14.024;2024-01-30T03:42:48;99613.69;;;1.27
71960;BMP280;59832;51.146;14.024;2024-01-30T03:45:15;99612.19;;;1.31
71960;BMP280;59832;51.146;14.024;2024-01-30T03:47:43;99614.47;;;1.32
71960;BMP280;59832;51.146;14.024;2024-01-30T03:50:10;99602.16;;;1.31
71960;BMP280;59832;51.146;14.024;2024-01-30T03:52:36;99613.22;;;1.30
71960;BMP280;59832;51.146;14.024;2024-01-30T03:55:03;99606.16;;;1.27
71960;BMP280;59832;51.146;14.024;2024-01-30T03:57:29;99611.22;;;1.32
71960;BMP280;59832;51.146;14.024;2024-01-30T03:59:56;99608.44;;;1.28
71960;BMP280;59832;51.146;14.024;2024-01-30T04:02:26;99601.66;;;1.29
71960;BMP280;59832;51.146;14.024;2024-01-30T04:04:52;99597.91;;;1.31
71960;BMP280;59832;51.146;14.024;2024-01-30T04:07:19;99599.91;;;1.29
71960;BMP280;59832;51.146;14.024;2024-01-30T04:09:49;99605.59;;;1.20
71960;BMP280;59832;51.146;14.024;2024-01-30T04:12:15;99594.38;;;1.27
71960;BMP280;59832;51.146;14.024;2024-01-30T04:14:43;99604.66;;;1.31
71960;BMP280;59832;51.146;14.024;2024-01-30T04:17:10;99608.69;;;1.32
71960;BMP280;59832;51.146;14.024;2024-01-30T04:19:39;99597.16;;;1.31
71960;BMP280;59832;51.146;14.024;2024-01-30T04:22:06;99615.13;;;1.23
71960;BMP280;59832;51.146;14.024;2024-01-30T04:24:32;99599.84;;;1.24
71960;BMP280;59832;51.146;14.024;2024-01-30T04:26:59;99599.63;;;1.26
71960;BMP280;59832;51.146;14.024;2024-01-30T04:29:25;99599.84;;;1.24
71960;BMP280;59832;51.146;14.024;2024-01-30T04:31:52;99603.41;;;1.28
71960;BMP280;59832;51.146;14.024;2024-01-30T04:34:18;99599.91;;;1.29
71960;BMP280;59832;51.146;14.024;2024-01-30T04:36:45;99596.16;;;1.32
71960;BMP280;59832;51.146;14.024;2024-01-30T04:39:12;99600.44;;;1.36
71960;BMP280;59832;51.146;14.024;2024-01-30T04:41:39;99591.91;;;1.32
71960;BMP280;59832;51.146;14.024;2024-01-30T04:44:06;99614.97;;;1.29
71960;BMP280;59832;51.146;14.024;2024-01-30T04:46:33;99602.44;;;1.34
71960;BMP280;59832;51.146;14.024;2024-01-30T04:49:00;99597.69;;;1.38
71960;BMP280;59832;51.146;14.024;2024-01-30T04:51:27;99604.50;;;1.42
71960;BMP280;59832;51.146;14.024;2024-01-30T04:53:53;99595.69;;;1.40
71960;BMP280;59832;51.146;14.024;2024-01-30T04:56:20;99593.69;;;1.42
71960;BMP280;59832;51.146;14.024;2024-01-30T04:58:46;99597.97;;;1.41
71960;BMP280;59832;51.146;14.024;2024-01-30T05:01:16;99590.97;;;1.43
71960;BMP280;59832;51.146;14.024;2024-01-30T05:03:43;99609.81;;;1.46
71960;BMP280;59832;51.146;14.024;2024-01-30T05:06:10;99601.97;;;1.37
71960;BMP280;59832;51.146;14.024;2024-01-30T05:08:36;99606.00;;;1.43
71960;BMP280;59832;51.146;14.024;2024-01-30T05:11:05;99602.97;;;1.41
71960;BMP280;59832;51.146;14.024;2024-01-30T05:13:31;99600.97;;;1.38
71960;BMP280;59832;51.146;14.024;2024-01-30T05:15:58;99610.28;;;1.48
71960;BMP280;59832;51.146;14.024;2024-01-30T05:18:24;99605.03;;;1.44
71960;BMP280;59832;51.146;14.024;2024-01-30T05:20:51;99598.28;;;1.50
71960;BMP280;59832;51.146;14.024;2024-01-30T05:23:18;99594.22;;;1.44
71960;BMP280;59832;51.146;14.024;2024-01-30T05:25:44;99595.94;;;1.38
71960;BMP280;59832;51.146;14.024;2024-01-30T05:28:10;99588.44;;;1.43
71960;BMP280;59832;51.146;14.024;2024-01-30T05:30:37;99595.44;;;1.36
71960;BMP280;59832;51.146;14.024;2024-01-30T05:33:03;99584.13;;;1.39
71960;BMP280;59832;51.146;14.024;2024-01-30T05:35:30;99586.94;;;1.42
71960;BMP280;59832;51.146;14.024;2024-01-30T05:37:57;99585.66;;;1.40
71960;BMP280;59832;51.146;14.024;2024-01-30T05:40:24;99584.41;;;1.37
71960;BMP280;59832;51.146;14.024;2024-01-30T05:42:50;99577.06;;;1.31
71960;BMP280;59832;51.146;14.024;2024-01-30T05:45:17;99577.06;;;1.31
71960;BMP280;59832;51.146;14.024;2024-01-30T05:47:43;99578.34;;;1.28
71960;BMP280;59832;51.146;14.024;2024-01-30T05:50:10;99578.81;;;1.30
71960;BMP280;59832;51.146;14.024;2024-01-30T05:52:36;99575.31;;;1.31
71960;BMP280;59832;51.146;14.024;2024-01-30T05:55:03;99582.63;;;1.33
71960;BMP280;59832;51.146;14.024;2024-01-30T05:57:30;99589.13;;;1.34
71960;BMP280;59832;51.146;14.024;2024-01-30T05:59:56;99592.16;;;1.36
71960;BMP280;59832;51.146;14.024;2024-01-30T06:02:23;99583.13;;;1.30
71960;BMP280;59832;51.146;14.024;2024-01-30T06:04:49;99602.16;;;1.31
71960;BMP280;59832;51.146;14.024;2024-01-30T06:07:16;99604.66;;;1.26
71960;BMP280;59832;51.146;14.024;2024-01-30T06:09:44;99593.81;;;1.20
71960;BMP280;59832;51.146;14.024;2024-01-30T06:12:12;99584.56;;;1.26
71960;BMP280;59832;51.146;14.024;2024-01-30T06:14:38;99589.31;;;1.22
71960;BMP280;59832;51.146;14.024;2024-01-30T06:17:05;99597.56;;;1.18
71960;BMP280;59832;51.146;14.024;2024-01-30T06:19:31;99594.81;;;1.19
71960;BMP280;59832;51.146;14.024;2024-01-30T06:21:58;99607.81;;;1.16
71960;BMP280;59832;51.146;14.024;2024-01-30T06:24:24;99596.81;;;1.22
71960;BMP280;59832;51.146;14.024;2024-01-30T06:26:51;99590.56;;;1.20
71960;BMP280;59832;51.146;14.024;2024-01-30T06:29:17;99593.22;;;1.13
71960;BMP280;59832;51.146;14.024;2024-01-30T06:31:45;99589.28;;;1.17
71960;BMP280;59832;51.146;14.024;2024-01-30T06:34:12;99588.75;;;1.15
71960;BMP280;59832;51.146;14.024;2024-01-30T06:36:38;99609.66;;;1.26
71960;BMP280;59832;51.146;14.024;2024-01-30T06:39:05;99593.84;;;1.25
71960;BMP280;59832;51.146;14.024;2024-01-30T06:41:32;99592.41;;;1.29
71960;BMP280;59832;51.146;14.024;2024-01-30T06:43:58;99585.84;;;1.28
71960;BMP280;59832;51.146;14.024;2024-01-30T06:46:25;99585.09;;;1.28
71960;BMP280;59832;51.146;14.024;2024-01-30T06:48:51;99587.09;;;1.26
71960;BMP280;59832;51.146;14.024;2024-01-30T06:51:18;99584.09;;;1.29
71960;BMP280;59832;51.146;14.024;2024-01-30T06:53:44;99567.00;;;1.26
71960;BMP280;59832;51.146;14.024;2024-01-30T06:56:11;99593.41;;;1.33
71960;BMP280;59832;51.146;14.024;2024-01-30T06:58:37;99573.34;;;1.33
71960;BMP280;59832;51.146;14.024;2024-01-30T07:01:04;99580.88;;;1.33
71960;BMP280;59832;51.146;14.024;2024-01-30T07:03:30;99577.38;;;1.39
71960;BMP280;59832;51.146;14.024;2024-01-30T07:05:57;99579.88;;;1.39
71960;BMP280;59832;51.146;14.024;2024-01-30T07:08:23;99586.22;;;1.47
71960;BMP280;59832;51.146;14.024;2024-01-30T07:10:49;99578.69;;;1.47
71960;BMP280;59832;51.146;14.024;2024-01-30T07:13:16;99584.50;;;1.52
71960;BMP280;59832;51.146;14.024;2024-01-30T07:15:43;99586.78;;;1.54
71960;BMP280;59832;51.146;14.024;2024-01-30T07:18:09;99595.06;;;1.54
71960;BMP280;59832;51.146;14.024;2024-01-30T07:20:36;99593.34;;;1.60
71960;BMP280;59832;51.146;14.024;2024-01-30T07:23:03;99605.44;;;1.68
71960;BMP280;59832;51.146;14.024;2024-01-30T07:25:29;99598.63;;;1.64
71960;BMP280;59832;51.146;14.024;2024-01-30T07:27:56;99597.66;;;1.70
71960;BMP280;59832;51.146;14.024;2024-01-30T07:30:23;99602.69;;;1.70
71960;BMP280;59832;51.146;14.024;2024-01-30T07:32:49;99601.47;;;1.72
71960;BMP280;59832;51.146;14.024;2024-01-30T07:35:16;99604.28;;;1.81
71960;BMP280;59832;51.146;14.024;2024-01-30T07:37:43;99600.25;;;1.80
71960;BMP280;59832;51.146;14.024;2024-01-30T07:40:09;99607.53;;;1.86
71960;BMP280;59832;51.146;14.024;2024-01-30T07:42:36;99610.09;;;1.97
71960;BMP280;59832;51.146;14.024;2024-01-30T07:45:03;99596.06;;;2.01
71960;BMP280;59832;51.146;14.024;2024-01-30T07:47:29;99597.84;;;2.05
71960;BMP280;59832;51.146;14.024;2024-01-30T07:49:56;99600.94;;;2.22
71960;BMP280;59832;51.146;14.024;2024-01-30T07:52:22;99591.41;;;2.34
71960;BMP280;59832;51.146;14.024;2024-01-30T07:54:50;99592.59;;;2.17
71960;BMP280;59832;51.146;14.024;2024-01-30T07:57:17;99600.19;;;2.32
71960;BMP280;59832;51.146;14.024;2024-01-30T07:59:44;99593.19;;;2.44
71960;BMP280;59832;51.146;14.024;2024-01-30T08:02:14;99593.22;;;2.64
71960;BMP280;59832;51.146;14.024;2024-01-30T08:04:41;99589.47;;;2.67
71960;BMP280;59832;51.146;14.024;2024-01-30T08:07:07;99601.56;;;2.75
71960;BMP280;59832;51.146;14.024;2024-01-30T08:09:34;99587.75;;;2.88
71960;BMP280;59832;51.146;14.024;2024-01-30T08:12:00;99605.88;;;2.85
71960;BMP280;59832;51.146;14.024;2024-01-30T08:14:27;99580.94;;;2.63
71960;BMP280;59832;51.146;14.024;2024-01-30T08:16:54;99585.44;;;2.66
71960;BMP280;59832;51.146;14.024;2024-01-30T08:19:21;99599.53;;;2.72
71960;BMP280;59832;51.146;14.024;2024-01-30T08:21:48;99591.75;;;2.79
71960;BMP280;59832;51.146;14.024;2024-01-30T08:24:15;99591.25;;;2.77
71960;BMP280;59832;51.146;14.024;2024-01-30T08:26:41;99602.56;;;2.74
71960;BMP280;59832;51.146;14.024;2024-01-30T08:29:08;99573.69;;;2.92
71960;BMP280;59832;51.146;14.024;2024-01-30T08:31:34;99588.00;;;2.91
71960;BMP280;59832;51.146;14.024;2024-01-30T08:34:01;99586.25;;;2.92
71960;BMP280;59832;51.146;14.024;2024-01-30T08:36:28;99577.69;;;2.83
71960;BMP280;59832;51.146;14.024;2024-01-30T08:38:54;99578.19;;;2.75
71960;BMP280;59832;51.146;14.024;2024-01-30T08:41:27;99574.91;;;2.74
71960;BMP280;59832;51.146;14.024;2024-01-30T08:43:53;99584.00;;;2.85
71960;BMP280;59832;51.146;14.024;2024-01-30T08:46:20;99577.69;;;2.88
71960;BMP280;59832;51.146;14.024;2024-01-30T08:48:47;99577.16;;;2.65
71960;BMP280;59832;51.146;14.024;2024-01-30T08:51:14;99575.16;;;2.67
71960;BMP280;59832;51.146;14.024;2024-01-30T08:53:41;99574.91;;;2.59
71960;BMP280;59832;51.146;14.024;2024-01-30T08:56:08;99575.19;;;2.83
71960;BMP280;59832;51.146;14.024;2024-01-30T08:58:35;99575.91;;;3.03
71960;BMP280;59832;51.146;14.024;2024-01-30T09:01:01;99572.16;;;2.86
71960;BMP280;59832;51.146;14.024;2024-01-30T09:03:30;99586.72;;;3.24
71960;BMP280;59832;51.146;14.024;2024-01-30T09:05:56;99588.75;;;3.17
71960;BMP280;59832;51.146;14.024;2024-01-30T09:08:23;99583.19;;;3.25
71960;BMP280;59832;51.146;14.024;2024-01-30T09:10:50;99593.72;;;3.68
71960;BMP280;59832;51.146;14.024;2024-01-30T09:13:16;99571.72;;;3.83
71960;BMP280;59832;51.146;14.024;2024-01-30T09:15:43;99576.53;;;3.80
71960;BMP280;59832;51.146;14.024;2024-01-30T09:18:09;99601.28;;;3.58
71960;BMP280;59832;51.146;14.024;2024-01-30T09:20:36;99583.16;;;3.61
71960;BMP280;59832;51.146;14.024;2024-01-30T09:23:03;99576.84;;;3.48
71960;BMP280;59832;51.146;14.024;2024-01-30T09:25:29;99585.66;;;3.66
71960;BMP280;59832;51.146;14.024;2024-01-30T09:27:56;99589.94;;;3.50
71960;BMP280;59832;51.146;14.024;2024-01-30T09:30:22;99604.72;;;3.92
71960;BMP280;59832;51.146;14.024;2024-01-30T09:32:49;99587.41;;;3.55
71960;BMP280;59832;51.146;14.024;2024-01-30T09:35:15;99590.28;;;4.08
71960;BMP280;59832;51.146;14.024;2024-01-30T09:37:42;99598.69;;;4.37
71960;BMP280;59832;51.146;14.024;2024-01-30T09:40:08;99590.72;;;4.20
71960;BMP280;59832;51.146;14.024;2024-01-30T09:42:36;99601.50;;;4.36
71960;BMP280;59832;51.146;14.024;2024-01-30T09:45:03;99624.19;;;4.74
71960;BMP280;59832;51.146;14.024;2024-01-30T09:47:36;99622.59;;;4.89
71960;BMP280;59832;51.146;14.024;2024-01-30T09:50:06;99619.75;;;4.56
71960;BMP280;59832;51.146;14.024;2024-01-30T09:52:33;99629.66;;;4.87
71960;BMP280;59832;51.146;14.024;2024-01-30T09:55:00;99620.34;;;4.43
71960;BMP280;59832;51.146;14.024;2024-01-30T09:57:27;99608.59;;;4.28
71960;BMP280;59832;51.146;14.024;2024-01-30T09:59:54;99623.91;;;4.37
71960;BMP280;59832;51.146;14.024;2024-01-30T10:02:21;99619.94;;;4.26
71960;BMP280;59832;51.146;14.024;2024-01-30T10:04:48;99632.38;;;4.56
71960;BMP280;59832;51.146;14.024;2024-01-30T10:07:16;99637.16;;;4.58
71960;BMP280;59832;51.146;14.024;2024-01-30T10:09:43;99623.06;;;3.98
71960;BMP280;59832;51.146;14.024;2024-01-30T10:12:09;99607.25;;;3.82
71960;BMP280;59832;51.146;14.024;2024-01-30T10:14:39;99597.78;;;4.18
71960;BMP280;59832;51.146;14.024;2024-01-30T10:17:09;99605.81;;;4.25
71960;BMP280;59832;51.146;14.024;2024-01-30T10:19:47;99604.19;;;3.95
71960;BMP280;59832;51.146;14.024;2024-01-30T10:22:13;99590.13;;;3.89
71960;BMP280;59832;51.146;14.024;2024-01-30T10:24:40;99605.94;;;3.94
71960;BMP280;59832;51.146;14.024;2024-01-30T10:27:07;99585.09;;;4.33
71960;BMP280;59832;51.146;14.024;2024-01-30T10:29:33;99593.25;;;4.20
71960;BMP280;59832;51.146;14.024;2024-01-30T10:32:06;99573.84;;;4.20
71960;BMP280;59832;51.146;14.024;2024-01-30T10:34:32;99578.13;;;4.20
71960;BMP280;59832;51.146;14.024;2024-01-30T10:37:08;99579.94;;;4.09
71960;BMP280;59832;51.146;14.024;2024-01-30T10:39:44;99567.19;;;3.90
71960;BMP280;59832;51.146;14.024;2024-01-30T10:42:18;99574.16;;;4.09
71960;BMP280;59832;51.146;14.024;2024-01-30T10:45:17;99563.34;;;4.03
71960;BMP280;59832;51.146;14.024;2024-01-30T10:47:53;99560.72;;;4.23
71960;BMP280;59832;51.146;14.024;2024-01-30T10:50:24;99547.69;;;4.50
71960;BMP280;59832;51.146;14.024;2024-01-30T10:52:52;99541.38;;;4.53
71960;BMP280;59832;51.146;14.024;2024-01-30T10:55:21;99541.34;;;4.58
71960;BMP280;59832;51.146;14.024;2024-01-30T10:57:48;99541.38;;;4.53
71960;BMP280;59832;51.146;14.024;2024-01-30T11:00:15;99534.69;;;4.96
71960;BMP280;59832;51.146;14.024;2024-01-30T11:02:46;99529.97;;;5.13
71960;BMP280;59832;51.146;14.024;2024-01-30T11:05:13;99538.81;;;5.10
71960;BMP280;59832;51.146;14.024;2024-01-30T11:07:41;99542.88;;;5.11
71960;BMP280;59832;51.146;14.024;2024-01-30T11:10:08;99526.94;;;5.16
71960;BMP280;59832;51.146;14.024;2024-01-30T11:12:39;99534.78;;;5.14
71960;BMP280;59832;51.146;14.024;2024-01-30T11:15:13;99535.34;;;5.30
71960;BMP280;59832;51.146;14.024;2024-01-30T11:22:47;99534.84;;;5.94
71960;BMP280;59832;51.146;14.024;2024-01-30T11:25:15;99518.94;;;5.33
71960;BMP280;59832;51.146;14.024;2024-01-30T11:27:43;99522.81;;;5.25
71960;BMP280;59832;51.146;14.024;2024-01-30T11:30:10;99522.41;;;5.13
71960;BMP280;59832;51.146;14.024;2024-01-30T11:32:37;99520.00;;;5.27
71960;BMP280;59832;51.146;14.024;2024-01-30T11:35:04;99507.50;;;5.16
71960;BMP280;59832;51.146;14.024;2024-01-30T11:37:36;99511.81;;;4.87
71960;BMP280;59832;51.146;14.024;2024-01-30T11:40:05;99516.19;;;4.76
71960;BMP280;59832;51.146;14.024;2024-01-30T11:42:32;99506.38;;;4.75
71960;BMP280;59832;51.146;14.024;2024-01-30T11:45:00;99510.22;;;4.72
71960;BMP280;59832;51.146;14.024;2024-01-30T11:47:28;99511.53;;;4.26
71960;BMP280;59832;51.146;14.024;2024-01-30T11:49:55;99499.34;;;4.38
71960;BMP280;59832;51.146;14.024;2024-01-30T11:52:25;99509.69;;;4.37
71960;BMP280;59832;51.146;14.024;2024-01-30T11:54:52;99506.22;;;4.32
71960;BMP280;59832;51.146;14.024;2024-01-30T11:57:19;99513.22;;;4.41
71960;BMP280;59832;51.146;14.024;2024-01-30T11:59:45;99511.78;;;4.24
71960;BMP280;59832;51.146;14.024;2024-01-30T12:02:15;99514.81;;;3.87
71960;BMP280;59832;51.146;14.024;2024-01-30T12:04:42;99506.75;;;3.85
71960;BMP280;59832;51.146;14.024;2024-01-30T12:07:09;99508.75;;;3.88
71960;BMP280;59832;51.146;14.024;2024-01-30T12:09:36;99515.56;;;3.83
71960;BMP280;59832;51.146;14.024;2024-01-30T12:12:02;99510.03;;;3.81
71960;BMP280;59832;51.146;14.024;2024-01-30T12:14:29;99508.78;;;3.73
71960;BMP280;59832;51.146;14.024;2024-01-30T12:16:55;99509.63;;;3.59
71960;BMP280;59832;51.146;14.024;2024-01-30T12:19:25;99506.28;;;3.78
71960;BMP280;59832;51.146;14.024;2024-01-30T12:21:56;99505.84;;;3.61
71960;BMP280;59832;51.146;14.024;2024-01-30T12:24:26;99503.00;;;3.73
71960;BMP280;59832;51.146;14.024;2024-01-30T12:26:57;99505.00;;;3.76
71960;BMP280;59832;51.146;14.024;2024-01-30T12:29:24;99493.25;;;3.61
71960;BMP280;59832;51.146;14.024;2024-01-30T12:31:53;99492.84;;;3.34
71960;BMP280;59832;51.146;14.024;2024-01-30T12:34:21;99497.41;;;3.27
71960;BMP280;59832;51.146;14.024;2024-01-30T12:36:48;99487.72;;;3.59
71960;BMP280;59832;51.146;14.024;2024-01-30T12:39:15;99481.94;;;3.59
71960;BMP280;59832;51.146;14.024;2024-01-30T12:41:42;99478.84;;;3.72
71960;BMP280;59832;51.146;14.024;2024-01-30T12:44:08;99477.19;;;3.47
71960;BMP280;59832;51.146;14.024;2024-01-30T12:46:35;99478.47;;;3.44
71960;BMP280;59832;51.146;14.024;2024-01-30T12:49:01;99475.72;;;3.41
71960;BMP280;59832;51.146;14.024;2024-01-30T12:51:28;99453.16;;;3.10
71960;BMP280;59832;51.146;14.024;2024-01-30T12:53:54;99475.53;;;3.22
71960;BMP280;59832;51.146;14.024;2024-01-30T12:56:21;99473.75;;;3.28
71960;BMP280;59832;51.146;14.024;2024-01-30T12:58:47;99470.00;;;3.15
71960;BMP280;59832;51.146;14.024;2024-01-30T13:01:18;99470.75;;;3.16
71960;BMP280;59832;51.146;14.024;2024-01-30T13:03:44;99477.53;;;3.15
71960;BMP280;59832;51.146;14.024;2024-01-30T13:06:11;99468.94;;;3.36
71960;BMP280;59832;51.146;14.024;2024-01-30T13:08:37;99483.84;;;3.12
71960;BMP280;59832;51.146;14.024;2024-01-30T13:11:04;99466.25;;;3.02
71960;BMP280;59832;51.146;14.024;2024-01-30T13:13:30;99459.94;;;2.95
71960;BMP280;59832;51.146;14.024;2024-01-30T13:15:57;99470.75;;;3.16
71960;BMP280;59832;51.146;14.024;2024-01-30T13:18:24;99469.94;;;3.30
71960;BMP280;59832;51.146;14.024;2024-01-30T13:20:50;99466.41;;;3.31
71960;BMP280;59832;51.146;14.024;2024-01-30T13:23:17;99464.47;;;3.13
71960;BMP280;59832;51.146;14.024;2024-01-30T13:25:43;99468.75;;;3.12
71960;BMP280;59832;51.146;14.024;2024-01-30T13:28:09;99460.69;;;2.95
71960;BMP280;59832;51.146;14.024;2024-01-30T13:30:36;99458.22;;;2.90
71960;BMP280;59832;51.146;14.024;2024-01-30T13:33:03;99466.75;;;3.09
71960;BMP280;59832;51.146;14.024;2024-01-30T13:35:29;99467.22;;;3.22
71960;BMP280;59832;51.146;14.024;2024-01-30T13:37:56;99465.72;;;3.16
71960;BMP280;59832;51.146;14.024;2024-01-30T13:40:22;99470.97;;;3.24
71960;BMP280;59832;51.146;14.024;2024-01-30T13:42:49;99469.25;;;3.15
71960;BMP280;59832;51.146;14.024;2024-01-30T13:45:15;99468.94;;;3.36
71960;BMP280;59832;51.146;14.024;2024-01-30T13:47:42;99457.09;;;3.32
71960;BMP280;59832;51.146;14.024;2024-01-30T13:50:09;99450.31;;;3.32
71960;BMP280;59832;51.146;14.024;2024-01-30T13:52:41;99455.63;;;3.26
71960;BMP280;59832;51.146;14.024;2024-01-30T13:55:11;99449.56;;;3.32
71960;BMP280;59832;51.146;14.024;2024-01-30T13:57:38;99443.25;;;3.39
71960;BMP280;59832;51.146;14.024;2024-01-30T14:00:05;99437.22;;;3.35
71960;BMP280;59832;51.146;14.024;2024-01-30T14:02:33;99439.75;;;3.35
71960;BMP280;59832;51.146;14.024;2024-01-30T14:04:59;99434.47;;;3.37
71960;BMP280;59832;51.146;14.024;2024-01-30T14:07:26;99440.97;;;3.38
71960;BMP280;59832;51.146;14.024;2024-01-30T14:09:53;99437.69;;;3.47
71960;BMP280;59832;51.146;14.024;2024-01-30T14:12:19;99428.41;;;3.38
71960;BMP280;59832;51.146;14.024;2024-01-30T14:14:46;99446.06;;;3.23